sensor_id;sensor_type;location;lat;lon;timestamp;temperature;humidity
3736;DHT22;1883;48.202;16.310;2024-03-06T00:02:06;7.20;59.90
3736;DHT22;1883;48.202;16.310;2024-03-06T00:04:34;7.30;59.70
3736;DHT22;1883;48.202;16.310;2024-03-06T00:07:04;7.40;59.70
3736;DHT22;1883;48.202;16.310;2024-03-06T00:09:34;7.40;59.40
3736;DHT22;1883;48.202;16.310;2024-03-06T00:12:02;7.40;59.30
3736;DHT22;1883;48.202;16.310;2024-03-06T00:14:32;7.40;59.20
3736;DHT22;1883;48.202;16.310;2024-03-06T00:17:14;7.30;58.90
3736;DHT22;1883;48.202;16.310;2024-03-06T00:20:12;7.40;58.50
3736;DHT22;1883;48.202;16.310;2024-03-06T00:22:54;7.30;58.50
3736;DHT22;1883;48.202;16.310;2024-03-06T00:25:35;7.30;58.20
3736;DHT22;1883;48.202;16.310;2024-03-06T00:28:10;7.20;57.90
3736;DHT22;1883;48.202;16.310;2024-03-06T00:30:45;7.20;57.70
3736;DHT22;1883;48.202;16.310;2024-03-06T00:33:12;7.20;57.30
3736;DHT22;1883;48.202;16.310;2024-03-06T00:35:40;7.20;56.90
3736;DHT22;1883;48.202;16.310;2024-03-06T00:38:28;7.20;56.50
3736;DHT22;1883;48.202;16.310;2024-03-06T00:41:10;7.20;56.00
3736;DHT22;1883;48.202;16.310;2024-03-06T00:43:41;7.10;55.70
3736;DHT22;1883;48.202;16.310;2024-03-06T00:46:18;7.20;55.30
3736;DHT22;1883;48.202;16.310;2024-03-06T00:48:45;7.20;55.10
3736;DHT22;1883;48.202;16.310;2024-03-06T00:51:12;7.20;54.80
3736;DHT22;1883;48.202;16.310;2024-03-06T00:53:39;7.30;54.60
3736;DHT22;1883;48.202;16.310;2024-03-06T00:56:07;7.20;54.10
3736;DHT22;1883;48.202;16.310;2024-03-06T00:58:34;7.20;53.80
3736;DHT22;1883;48.202;16.310;2024-03-06T01:01:01;7.30;53.70
3736;DHT22;1883;48.202;16.310;2024-03-06T01:03:29;7.30;53.40
3736;DHT22;1883;48.202;16.310;2024-03-06T01:05:56;7.30;53.20
3736;DHT22;1883;48.202;16.310;2024-03-06T01:08:23;7.30;52.90
3736;DHT22;1883;48.202;16.310;2024-03-06T01:10:51;7.30;52.90
3736;DHT22;1883;48.202;16.310;2024-03-06T01:13:18;7.20;52.50
3736;DHT22;1883;48.202;16.310;2024-03-06T01:15:44;7.20;52.20
3736;DHT22;1883;48.202;16.310;2024-03-06T01:18:11;7.20;51.90
3736;DHT22;1883;48.202;16.310;2024-03-06T01:20:40;7.10;51.80
3736;DHT22;1883;48.202;16.310;2024-03-06T01:23:07;7.10;51.50
3736;DHT22;1883;48.202;16.310;2024-03-06T01:25:34;7.10;51.20
3736;DHT22;1883;48.202;16.310;2024-03-06T01:28:01;7.10;50.90
3736;DHT22;1883;48.202;16.310;2024-03-06T01:30:28;7.10;50.80
3736;DHT22;1883;48.202;16.310;2024-03-06T01:32:55;7.10;50.70
3736;DHT22;1883;48.202;16.310;2024-03-06T01:35:23;7.00;50.40
3736;DHT22;1883;48.202;16.310;2024-03-06T01:37:51;7.00;50.60
3736;DHT22;1883;48.202;16.310;2024-03-06T01:40:18;7.00;50.40
3736;DHT22;1883;48.202;16.310;2024-03-06T01:42:46;6.90;50.20
3736;DHT22;1883;48.202;16.310;2024-03-06T01:45:14;6.90;50.20
3736;DHT22;1883;48.202;16.310;2024-03-06T01:47:41;6.90;50.10
3736;DHT22;1883;48.202;16.310;2024-03-06T01:50:09;6.80;50.00
3736;DHT22;1883;48.202;16.310;2024-03-06T01:52:40;6.80;49.90
3736;DHT22;1883;48.202;16.310;2024-03-06T01:55:09;6.90;49.80
3736;DHT22;1883;48.202;16.310;2024-03-06T01:57:38;6.80;49.80
3736;DHT22;1883;48.202;16.310;2024-03-06T02:00:08;6.80;49.70
3736;DHT22;1883;48.202;16.310;2024-03-06T02:02:40;6.80;49.80
3736;DHT22;1883;48.202;16.310;2024-03-06T02:05:08;6.80;49.80
3736;DHT22;1883;48.202;16.310;2024-03-06T02:07:36;6.80;49.90
3736;DHT22;1883;48.202;16.310;2024-03-06T02:10:07;6.70;50.00
3736;DHT22;1883;48.202;16.310;2024-03-06T02:12:37;6.70;50.00
3736;DHT22;1883;48.202;16.310;2024-03-06T02:15:04;6.70;50.10
3736;DHT22;1883;48.202;16.310;2024-03-06T02:17:31;6.60;50.00
3736;DHT22;1883;48.202;16.310;2024-03-06T02:19:59;6.70;49.90
3736;DHT22;1883;48.202;16.310;2024-03-06T02:22:28;6.60;50.00
3736;DHT22;1883;48.202;16.310;2024-03-06T02:24:55;6.60;49.90
3736;DHT22;1883;48.202;16.310;2024-03-06T02:27:22;6.60;49.90
3736;DHT22;1883;48.202;16.310;2024-03-06T02:29:49;6.60;49.90
3736;DHT22;1883;48.202;16.310;2024-03-06T02:32:16;6.60;49.90
3736;DHT22;1883;48.202;16.310;2024-03-06T02:34:43;6.50;49.90
3736;DHT22;1883;48.202;16.310;2024-03-06T02:37:10;6.50;49.80
3736;DHT22;1883;48.202;16.310;2024-03-06T02:39:39;6.60;49.80
3736;DHT22;1883;48.202;16.310;2024-03-06T02:42:06;6.50;49.80
3736;DHT22;1883;48.202;16.310;2024-03-06T02:44:33;6.50;49.70
3736;DHT22;1883;48.202;16.310;2024-03-06T02:47:00;6.50;49.90
3736;DHT22;1883;48.202;16.310;2024-03-06T02:49:27;6.60;49.90
3736;DHT22;1883;48.202;16.310;2024-03-06T02:51:54;6.50;49.90
3736;DHT22;1883;48.202;16.310;2024-03-06T02:54:21;6.60;50.20
3736;DHT22;1883;48.202;16.310;2024-03-06T02:56:52;6.60;50.10
3736;DHT22;1883;48.202;16.310;2024-03-06T02:59:19;6.70;50.40
3736;DHT22;1883;48.202;16.310;2024-03-06T03:01:46;6.70;50.50
3736;DHT22;1883;48.202;16.310;2024-03-06T03:04:13;6.60;50.50
3736;DHT22;1883;48.202;16.310;2024-03-06T03:06:40;6.70;50.50
3736;DHT22;1883;48.202;16.310;2024-03-06T03:09:08;6.70;50.60
3736;DHT22;1883;48.202;16.310;2024-03-06T03:11:37;6.70;50.60
3736;DHT22;1883;48.202;16.310;2024-03-06T03:14:06;6.70;50.80
3736;DHT22;1883;48.202;16.310;2024-03-06T03:16:33;6.60;50.70
3736;DHT22;1883;48.202;16.310;2024-03-06T03:19:01;6.50;50.40
3736;DHT22;1883;48.202;16.310;2024-03-06T03:21:28;6.50;50.30
3736;DHT22;1883;48.202;16.310;2024-03-06T03:23:55;6.40;50.40
3736;DHT22;1883;48.202;16.310;2024-03-06T03:26:22;6.40;50.50
3736;DHT22;1883;48.202;16.310;2024-03-06T03:28:49;6.30;50.50
3736;DHT22;1883;48.202;16.310;2024-03-06T03:31:17;6.20;50.40
3736;DHT22;1883;48.202;16.310;2024-03-06T03:33:44;6.20;50.20
3736;DHT22;1883;48.202;16.310;2024-03-06T03:36:11;6.10;50.10
3736;DHT22;1883;48.202;16.310;2024-03-06T03:38:39;6.10;50.10
3736;DHT22;1883;48.202;16.310;2024-03-06T03:41:07;6.00;50.00
3736;DHT22;1883;48.202;16.310;2024-03-06T03:43:34;5.90;49.90
3736;DHT22;1883;48.202;16.310;2024-03-06T03:46:01;5.90;49.80
3736;DHT22;1883;48.202;16.310;2024-03-06T03:48:31;5.80;49.70
3736;DHT22;1883;48.202;16.310;2024-03-06T03:51:01;5.90;49.60
3736;DHT22;1883;48.202;16.310;2024-03-06T03:53:30;5.80;49.70
3736;DHT22;1883;48.202;16.310;2024-03-06T03:55:57;5.80;49.60
3736;DHT22;1883;48.202;16.310;2024-03-06T03:58:24;5.80;49.50
3736;DHT22;1883;48.202;16.310;2024-03-06T04:00:51;5.80;49.60
3736;DHT22;1883;48.202;16.310;2024-03-06T04:03:20;5.80;49.60
3736;DHT22;1883;48.202;16.310;2024-03-06T04:05:49;5.70;49.80
3736;DHT22;1883;48.202;16.310;2024-03-06T04:08:16;5.70;49.70
3736;DHT22;1883;48.202;16.310;2024-03-06T04:10:43;5.70;49.70
3736;DHT22;1883;48.202;16.310;2024-03-06T04:13:11;5.60;49.70
3736;DHT22;1883;48.202;16.310;2024-03-06T04:15:38;5.60;49.70
3736;DHT22;1883;48.202;16.310;2024-03-06T04:18:06;5.60;49.60
3736;DHT22;1883;48.202;16.310;2024-03-06T04:20:33;5.60;49.60
3736;DHT22;1883;48.202;16.310;2024-03-06T04:23:03;5.60;49.60
3736;DHT22;1883;48.202;16.310;2024-03-06T04:25:30;5.50;49.80
3736;DHT22;1883;48.202;16.310;2024-03-06T04:27:59;5.50;49.60
3736;DHT22;1883;48.202;16.310;2024-03-06T04:30:26;5.50;49.80
3736;DHT22;1883;48.202;16.310;2024-03-06T04:32:53;5.50;49.70
3736;DHT22;1883;48.202;16.310;2024-03-06T04:35:20;5.50;49.90
3736;DHT22;1883;48.202;16.310;2024-03-06T04:37:47;5.50;50.00
3736;DHT22;1883;48.202;16.310;2024-03-06T04:40:16;5.40;49.90
3736;DHT22;1883;48.202;16.310;2024-03-06T04:42:45;5.40;49.80
3736;DHT22;1883;48.202;16.310;2024-03-06T04:45:15;5.40;49.90
3736;DHT22;1883;48.202;16.310;2024-03-06T04:47:43;5.40;49.80
3736;DHT22;1883;48.202;16.310;2024-03-06T04:50:11;5.40;49.90
3736;DHT22;1883;48.202;16.310;2024-03-06T04:52:40;5.50;50.10
3736;DHT22;1883;48.202;16.310;2024-03-06T04:55:08;5.40;50.10
3736;DHT22;1883;48.202;16.310;2024-03-06T04:57:39;5.40;50.20
3736;DHT22;1883;48.202;16.310;2024-03-06T05:00:09;5.40;50.10
3736;DHT22;1883;48.202;16.310;2024-03-06T05:02:37;5.40;50.20
3736;DHT22;1883;48.202;16.310;2024-03-06T05:05:04;5.30;50.30
3736;DHT22;1883;48.202;16.310;2024-03-06T05:07:31;5.30;50.30
3736;DHT22;1883;48.202;16.310;2024-03-06T05:09:59;5.30;50.30
3736;DHT22;1883;48.202;16.310;2024-03-06T05:12:26;5.40;50.50
3736;DHT22;1883;48.202;16.310;2024-03-06T05:14:57;5.40;50.70
3736;DHT22;1883;48.202;16.310;2024-03-06T05:17:24;5.40;50.80
3736;DHT22;1883;48.202;16.310;2024-03-06T05:19:51;5.30;50.90
3736;DHT22;1883;48.202;16.310;2024-03-06T05:22:20;5.30;50.90
3736;DHT22;1883;48.202;16.310;2024-03-06T05:24:49;5.40;51.10
3736;DHT22;1883;48.202;16.310;2024-03-06T05:27:16;5.30;51.20
3736;DHT22;1883;48.202;16.310;2024-03-06T05:29:44;5.30;51.40
3736;DHT22;1883;48.202;16.310;2024-03-06T05:32:13;5.30;51.40
3736;DHT22;1883;48.202;16.310;2024-03-06T05:34:40;5.40;51.80
3736;DHT22;1883;48.202;16.310;2024-03-06T05:37:07;5.40;51.90
3736;DHT22;1883;48.202;16.310;2024-03-06T05:39:34;5.40;52.20
3736;DHT22;1883;48.202;16.310;2024-03-06T05:42:03;5.40;52.30
3736;DHT22;1883;48.202;16.310;2024-03-06T05:44:31;5.40;52.60
3736;DHT22;1883;48.202;16.310;2024-03-06T05:46:59;5.40;52.80
3736;DHT22;1883;48.202;16.310;2024-03-06T05:52:40;5.40;53.00
3736;DHT22;1883;48.202;16.310;2024-03-06T05:55:16;5.50;53.50
3736;DHT22;1883;48.202;16.310;2024-03-06T05:57:44;5.50;53.80
3736;DHT22;1883;48.202;16.310;2024-03-06T06:00:13;5.50;54.00
3736;DHT22;1883;48.202;16.310;2024-03-06T06:02:40;5.60;54.30
3736;DHT22;1883;48.202;16.310;2024-03-06T06:05:08;5.70;54.70
3736;DHT22;1883;48.202;16.310;2024-03-06T06:07:35;5.70;55.00
3736;DHT22;1883;48.202;16.310;2024-03-06T06:10:06;5.70;55.20
3736;DHT22;1883;48.202;16.310;2024-03-06T06:12:35;5.70;55.40
3736;DHT22;1883;48.202;16.310;2024-03-06T06:15:05;5.70;55.60
3736;DHT22;1883;48.202;16.310;2024-03-06T06:17:37;5.70;55.90
3736;DHT22;1883;48.202;16.310;2024-03-06T06:20:07;5.80;56.20
3736;DHT22;1883;48.202;16.310;2024-03-06T06:22:40;5.80;56.50
3736;DHT22;1883;48.202;16.310;2024-03-06T06:25:09;5.80;56.70
3736;DHT22;1883;48.202;16.310;2024-03-06T06:27:36;5.90;57.00
3736;DHT22;1883;48.202;16.310;2024-03-06T06:30:04;5.90;57.20
3736;DHT22;1883;48.202;16.310;2024-03-06T06:32:35;5.90;57.50
3736;DHT22;1883;48.202;16.310;2024-03-06T06:35:03;6.00;57.80
3736;DHT22;1883;48.202;16.310;2024-03-06T06:40:29;6.10;58.10
3736;DHT22;1883;48.202;16.310;2024-03-06T06:42:58;6.10;58.30
3736;DHT22;1883;48.202;16.310;2024-03-06T06:45:26;6.20;58.50
3736;DHT22;1883;48.202;16.310;2024-03-06T06:47:54;6.20;58.60
3736;DHT22;1883;48.202;16.310;2024-03-06T06:50:22;6.30;58.80
3736;DHT22;1883;48.202;16.310;2024-03-06T06:52:55;6.40;59.10
3736;DHT22;1883;48.202;16.310;2024-03-06T06:55:44;6.40;59.30
3736;DHT22;1883;48.202;16.310;2024-03-06T06:58:13;6.50;59.70
3736;DHT22;1883;48.202;16.310;2024-03-06T07:00:57;6.40;59.70
3736;DHT22;1883;48.202;16.310;2024-03-06T07:03:39;6.50;59.90
3736;DHT22;1883;48.202;16.310;2024-03-06T07:06:23;6.60;60.20
3736;DHT22;1883;48.202;16.310;2024-03-06T07:09:21;6.70;60.20
3736;DHT22;1883;48.202;16.310;2024-03-06T07:11:56;6.70;60.40
3736;DHT22;1883;48.202;16.310;2024-03-06T07:14:23;6.80;60.70
3736;DHT22;1883;48.202;16.310;2024-03-06T07:16:52;6.80;60.80
3736;DHT22;1883;48.202;16.310;2024-03-06T07:19:39;6.90;61.20
3736;DHT22;1883;48.202;16.310;2024-03-06T07:22:07;6.90;61.30
3736;DHT22;1883;48.202;16.310;2024-03-06T07:24:35;7.00;61.40
3736;DHT22;1883;48.202;16.310;2024-03-06T07:27:21;7.00;61.70
3736;DHT22;1883;48.202;16.310;2024-03-06T07:29:53;7.10;61.90
3736;DHT22;1883;48.202;16.310;2024-03-06T07:32:25;7.10;62.10
3736;DHT22;1883;48.202;16.310;2024-03-06T07:34:52;7.20;62.30
3736;DHT22;1883;48.202;16.310;2024-03-06T07:37:19;7.10;62.30
3736;DHT22;1883;48.202;16.310;2024-03-06T07:39:47;7.20;62.60
3736;DHT22;1883;48.202;16.310;2024-03-06T07:42:15;7.20;62.60
3736;DHT22;1883;48.202;16.310;2024-03-06T07:44:45;7.30;62.90
3736;DHT22;1883;48.202;16.310;2024-03-06T07:47:12;7.30;62.80
3736;DHT22;1883;48.202;16.310;2024-03-06T07:49:40;7.30;62.90
3736;DHT22;1883;48.202;16.310;2024-03-06T07:52:10;7.50;63.00
3736;DHT22;1883;48.202;16.310;2024-03-06T07:54:37;7.40;63.10
3736;DHT22;1883;48.202;16.310;2024-03-06T07:57:05;7.50;63.30
3736;DHT22;1883;48.202;16.310;2024-03-06T07:59:35;7.50;63.30
3736;DHT22;1883;48.202;16.310;2024-03-06T08:02:17;7.60;63.80
3736;DHT22;1883;48.202;16.310;2024-03-06T08:04:48;7.60;64.00
3736;DHT22;1883;48.202;16.310;2024-03-06T08:07:23;7.50;64.10
3736;DHT22;1883;48.202;16.310;2024-03-06T08:09:52;7.60;64.20
3736;DHT22;1883;48.202;16.310;2024-03-06T08:12:20;7.50;64.40
3736;DHT22;1883;48.202;16.310;2024-03-06T08:14:51;7.70;64.40
3736;DHT22;1883;48.202;16.310;2024-03-06T08:17:51;7.60;64.50
3736;DHT22;1883;48.202;16.310;2024-03-06T08:20:23;7.60;64.60
3736;DHT22;1883;48.202;16.310;2024-03-06T08:23:06;7.60;64.60
3736;DHT22;1883;48.202;16.310;2024-03-06T08:25:48;7.60;64.80
3736;DHT22;1883;48.202;16.310;2024-03-06T08:28:25;7.70;64.80
3736;DHT22;1883;48.202;16.310;2024-03-06T08:31:06;7.80;64.80
3736;DHT22;1883;48.202;16.310;2024-03-06T08:33:38;7.90;65.30
3736;DHT22;1883;48.202;16.310;2024-03-06T08:36:06;7.90;65.40
3736;DHT22;1883;48.202;16.310;2024-03-06T08:38:41;7.90;65.40
3736;DHT22;1883;48.202;16.310;2024-03-06T08:41:09;8.00;65.50
3736;DHT22;1883;48.202;16.310;2024-03-06T08:43:42;8.10;65.80
3736;DHT22;1883;48.202;16.310;2024-03-06T08:46:10;8.10;65.90
3736;DHT22;1883;48.202;16.310;2024-03-06T08:48:42;8.30;66.10
3736;DHT22;1883;48.202;16.310;2024-03-06T08:51:10;8.30;66.30
3736;DHT22;1883;48.202;16.310;2024-03-06T08:53:38;8.30;66.20
3736;DHT22;1883;48.202;16.310;2024-03-06T08:56:07;8.20;66.50
3736;DHT22;1883;48.202;16.310;2024-03-06T08:58:35;8.30;66.50
3736;DHT22;1883;48.202;16.310;2024-03-06T09:01:06;8.40;66.60
3736;DHT22;1883;48.202;16.310;2024-03-06T09:03:33;8.30;66.40
3736;DHT22;1883;48.202;16.310;2024-03-06T09:06:08;8.20;66.50
3736;DHT22;1883;48.202;16.310;2024-03-06T09:08:36;8.20;66.40
3736;DHT22;1883;48.202;16.310;2024-03-06T09:11:05;8.10;66.40
3736;DHT22;1883;48.202;16.310;2024-03-06T09:13:33;8.20;66.30
3736;DHT22;1883;48.202;16.310;2024-03-06T09:16:06;8.20;66.40
3736;DHT22;1883;48.202;16.310;2024-03-06T09:18:37;8.20;66.50
3736;DHT22;1883;48.202;16.310;2024-03-06T09:21:16;8.20;66.30
3736;DHT22;1883;48.202;16.310;2024-03-06T09:23:58;8.30;66.50
3736;DHT22;1883;48.202;16.310;2024-03-06T09:26:29;8.30;66.80
3736;DHT22;1883;48.202;16.310;2024-03-06T09:28:59;8.40;66.80
3736;DHT22;1883;48.202;16.310;2024-03-06T09:31:30;8.50;67.10
3736;DHT22;1883;48.202;16.310;2024-03-06T09:33:57;8.50;67.50
3736;DHT22;1883;48.202;16.310;2024-03-06T09:40:21;8.50;67.50
3736;DHT22;1883;48.202;16.310;2024-03-06T09:42:55;8.70;67.40
3736;DHT22;1883;48.202;16.310;2024-03-06T09:45:32;8.70;67.70
3736;DHT22;1883;48.202;16.310;2024-03-06T09:48:02;8.60;67.70
3736;DHT22;1883;48.202;16.310;2024-03-06T09:50:35;8.70;67.70
3736;DHT22;1883;48.202;16.310;2024-03-06T09:53:08;8.70;67.70
3736;DHT22;1883;48.202;16.310;2024-03-06T09:56:10;8.80;67.70
3736;DHT22;1883;48.202;16.310;2024-03-06T09:58:54;8.90;67.70
3736;DHT22;1883;48.202;16.310;2024-03-06T10:01:37;8.80;67.70
3736;DHT22;1883;48.202;16.310;2024-03-06T10:04:19;8.90;67.60
3736;DHT22;1883;48.202;16.310;2024-03-06T10:07:01;8.90;67.70
3736;DHT22;1883;48.202;16.310;2024-03-06T10:09:34;9.00;67.70
3736;DHT22;1883;48.202;16.310;2024-03-06T10:12:17;9.00;67.70
3736;DHT22;1883;48.202;16.310;2024-03-06T10:14:58;9.20;68.00
3736;DHT22;1883;48.202;16.310;2024-03-06T10:17:25;9.30;68.20
3736;DHT22;1883;48.202;16.310;2024-03-06T10:20:16;9.40;68.40
3736;DHT22;1883;48.202;16.310;2024-03-06T10:22:51;9.30;68.50
3736;DHT22;1883;48.202;16.310;2024-03-06T10:25:37;9.30;68.30
3736;DHT22;1883;48.202;16.310;2024-03-06T10:28:25;9.30;68.50
3736;DHT22;1883;48.202;16.310;2024-03-06T10:31:05;9.30;68.40
3736;DHT22;1883;48.202;16.310;2024-03-06T10:33:34;9.30;68.60
3736;DHT22;1883;48.202;16.310;2024-03-06T10:36:05;9.20;68.50
3736;DHT22;1883;48.202;16.310;2024-03-06T10:38:44;9.20;68.50
3736;DHT22;1883;48.202;16.310;2024-03-06T10:41:20;9.20;68.60
3736;DHT22;1883;48.202;16.310;2024-03-06T10:43:57;9.40;68.60
3736;DHT22;1883;48.202;16.310;2024-03-06T10:46:27;9.50;68.80
3736;DHT22;1883;48.202;16.310;2024-03-06T10:48:56;9.60;69.10
3736;DHT22;1883;48.202;16.310;2024-03-06T10:51:54;9.60;69.00
3736;DHT22;1883;48.202;16.310;2024-03-06T10:54:22;9.60;69.20
3736;DHT22;1883;48.202;16.310;2024-03-06T10:57:08;9.50;69.00
3736;DHT22;1883;48.202;16.310;2024-03-06T11:00:36;9.50;69.00
3736;DHT22;1883;48.202;16.310;2024-03-06T11:03:34;9.80;69.20
3736;DHT22;1883;48.202;16.310;2024-03-06T11:12:48;9.70;69.60
3736;DHT22;1883;48.202;16.310;2024-03-06T11:15:16;9.70;69.40
3736;DHT22;1883;48.202;16.310;2024-03-06T11:32:02;9.60;69.60
3736;DHT22;1883;48.202;16.310;2024-03-06T11:34:39;9.90;69.80
3736;DHT22;1883;48.202;16.310;2024-03-06T11:37:10;10.00;69.70
3736;DHT22;1883;48.202;16.310;2024-03-06T11:39:59;10.20;70.20
3736;DHT22;1883;48.202;16.310;2024-03-06T11:43:21;10.00;70.20
3736;DHT22;1883;48.202;16.310;2024-03-06T11:46:20;9.80;69.80
3736;DHT22;1883;48.202;16.310;2024-03-06T11:55:23;10.30;70.40
3736;DHT22;1883;48.202;16.310;2024-03-06T11:57:53;10.20;70.20
3736;DHT22;1883;48.202;16.310;2024-03-06T12:00:24;10.30;70.10
3736;DHT22;1883;48.202;16.310;2024-03-06T12:03:06;10.30;70.30
3736;DHT22;1883;48.202;16.310;2024-03-06T12:08:56;10.10;70.20
3736;DHT22;1883;48.202;16.310;2024-03-06T12:27:25;11.10;71.00
3736;DHT22;1883;48.202;16.310;2024-03-06T12:30:12;10.60;70.50
3736;DHT22;1883;48.202;16.310;2024-03-06T12:32:59;10.60;70.40
3736;DHT22;1883;48.202;16.310;2024-03-06T12:35:41;10.80;70.40
3736;DHT22;1883;48.202;16.310;2024-03-06T12:38:31;10.80;70.60
3736;DHT22;1883;48.202;16.310;2024-03-06T12:41:46;10.80;70.60
3736;DHT22;1883;48.202;16.310;2024-03-06T12:50:42;10.70;70.40
3736;DHT22;1883;48.202;16.310;2024-03-06T12:53:17;10.60;70.40
3736;DHT22;1883;48.202;16.310;2024-03-06T12:55:46;10.50;70.20
3736;DHT22;1883;48.202;16.310;2024-03-06T12:58:15;10.50;70.20
3736;DHT22;1883;48.202;16.310;2024-03-06T13:00:44;10.50;70.20
3736;DHT22;1883;48.202;16.310;2024-03-06T13:03:27;10.40;70.20
3736;DHT22;1883;48.202;16.310;2024-03-06T13:06:26;10.30;70.10
3736;DHT22;1883;48.202;16.310;2024-03-06T13:15:31;10.10;70.20
3736;DHT22;1883;48.202;16.310;2024-03-06T13:34:50;10.10;70.20
3736;DHT22;1883;48.202;16.310;2024-03-06T13:37:29;10.00;70.10
3736;DHT22;1883;48.202;16.310;2024-03-06T13:40:11;9.90;69.90
3736;DHT22;1883;48.202;16.310;2024-03-06T13:43:06;9.90;69.70
3736;DHT22;1883;48.202;16.310;2024-03-06T13:45:54;9.80;69.60
3736;DHT22;1883;48.202;16.310;2024-03-06T13:48:50;9.70;69.50
3736;DHT22;1883;48.202;16.310;2024-03-06T13:51:51;9.60;69.50
3736;DHT22;1883;48.202;16.310;2024-03-06T13:54:33;9.70;69.50
3736;DHT22;1883;48.202;16.310;2024-03-06T13:57:14;9.70;69.60
3736;DHT22;1883;48.202;16.310;2024-03-06T14:00:17;9.80;69.70
3736;DHT22;1883;48.202;16.310;2024-03-06T14:03:23;9.80;69.80
3736;DHT22;1883;48.202;16.310;2024-03-06T14:06:05;9.70;69.90
3736;DHT22;1883;48.202;16.310;2024-03-06T14:09:11;9.60;69.80
3736;DHT22;1883;48.202;16.310;2024-03-06T14:11:44;9.70;69.80
3736;DHT22;1883;48.202;16.310;2024-03-06T14:17:20;9.70;69.90
3736;DHT22;1883;48.202;16.310;2024-03-06T14:19:50;9.60;69.80
3736;DHT22;1883;48.202;16.310;2024-03-06T14:22:51;9.70;69.90
3736;DHT22;1883;48.202;16.310;2024-03-06T14:32:49;9.60;69.70
3736;DHT22;1883;48.202;16.310;2024-03-06T14:35:30;9.50;69.70
3736;DHT22;1883;48.202;16.310;2024-03-06T14:38:11;9.50;69.60
3736;DHT22;1883;48.202;16.310;2024-03-06T14:41:06;9.50;69.50
3736;DHT22;1883;48.202;16.310;2024-03-06T14:43:59;9.50;69.70
3736;DHT22;1883;48.202;16.310;2024-03-06T14:46:49;9.50;69.70
3736;DHT22;1883;48.202;16.310;2024-03-06T14:49:36;9.50;69.70
3736;DHT22;1883;48.202;16.310;2024-03-06T14:52:38;9.50;69.70
3736;DHT22;1883;48.202;16.310;2024-03-06T15:04:25;9.50;69.70
3736;DHT22;1883;48.202;16.310;2024-03-06T15:15:26;9.50;69.80
3736;DHT22;1883;48.202;16.310;2024-03-06T15:18:30;9.50;69.80
3736;DHT22;1883;48.202;16.310;2024-03-06T15:21:24;9.50;69.70
3736;DHT22;1883;48.202;16.310;2024-03-06T15:23:52;9.50;69.70
3736;DHT22;1883;48.202;16.310;2024-03-06T15:26:33;9.50;69.70
3736;DHT22;1883;48.202;16.310;2024-03-06T15:29:03;9.50;69.70
3736;DHT22;1883;48.202;16.310;2024-03-06T15:32:17;9.40;69.80
3736;DHT22;1883;48.202;16.310;2024-03-06T15:35:17;9.40;69.70
3736;DHT22;1883;48.202;16.310;2024-03-06T15:43:15;9.40;69.70
3736;DHT22;1883;48.202;16.310;2024-03-06T15:45:58;9.40;69.80
3736;DHT22;1883;48.202;16.310;2024-03-06T15:52:40;9.30;69.90
3736;DHT22;1883;48.202;16.310;2024-03-06T15:55:35;9.30;69.70
3736;DHT22;1883;48.202;16.310;2024-03-06T16:03:37;9.20;69.60
3736;DHT22;1883;48.202;16.310;2024-03-06T16:06:19;9.20;69.50
3736;DHT22;1883;48.202;16.310;2024-03-06T16:15:27;9.10;69.60
3736;DHT22;1883;48.202;16.310;2024-03-06T16:25:38;9.00;69.50
3736;DHT22;1883;48.202;16.310;2024-03-06T16:28:20;9.00;69.50
3736;DHT22;1883;48.202;16.310;2024-03-06T16:37:36;8.70;69.20
3736;DHT22;1883;48.202;16.310;2024-03-06T16:40:19;8.60;69.10
3736;DHT22;1883;48.202;16.310;2024-03-06T16:43:01;8.60;69.10
3736;DHT22;1883;48.202;16.310;2024-03-06T16:45:48;8.50;69.00
3736;DHT22;1883;48.202;16.310;2024-03-06T16:48:48;8.50;68.90
3736;DHT22;1883;48.202;16.310;2024-03-06T16:51:31;8.40;68.80
3736;DHT22;1883;48.202;16.310;2024-03-06T16:54:17;8.40;68.90
3736;DHT22;1883;48.202;16.310;2024-03-06T16:59:58;8.40;69.00
3736;DHT22;1883;48.202;16.310;2024-03-06T17:02:31;8.40;68.90
3736;DHT22;1883;48.202;16.310;2024-03-06T17:05:28;8.30;68.90
3736;DHT22;1883;48.202;16.310;2024-03-06T17:09:01;8.20;68.80
3736;DHT22;1883;48.202;16.310;2024-03-06T17:15:25;8.20;68.70
3736;DHT22;1883;48.202;16.310;2024-03-06T17:18:06;8.10;68.70
3736;DHT22;1883;48.202;16.310;2024-03-06T17:20:37;8.00;68.80
3736;DHT22;1883;48.202;16.310;2024-03-06T17:23:09;8.00;68.70
3736;DHT22;1883;48.202;16.310;2024-03-06T17:25:50;8.10;68.80
3736;DHT22;1883;48.202;16.310;2024-03-06T17:28:35;8.00;68.90
3736;DHT22;1883;48.202;16.310;2024-03-06T17:31:20;8.00;68.90
3736;DHT22;1883;48.202;16.310;2024-03-06T17:34:02;8.20;69.00
3736;DHT22;1883;48.202;16.310;2024-03-06T17:36:46;8.20;69.00
3736;DHT22;1883;48.202;16.310;2024-03-06T17:39:51;8.10;69.10
3736;DHT22;1883;48.202;16.310;2024-03-06T17:42:35;8.20;69.10
3736;DHT22;1883;48.202;16.310;2024-03-06T17:48:39;8.10;69.10
3736;DHT22;1883;48.202;16.310;2024-03-06T17:51:12;8.20;69.20
3736;DHT22;1883;48.202;16.310;2024-03-06T17:53:53;8.10;69.20
3736;DHT22;1883;48.202;16.310;2024-03-06T17:56:23;8.20;69.10
3736;DHT22;1883;48.202;16.310;2024-03-06T17:58:50;8.20;69.10
3736;DHT22;1883;48.202;16.310;2024-03-06T18:03:54;8.20;69.30
3736;DHT22;1883;48.202;16.310;2024-03-06T18:06:24;8.20;69.30
3736;DHT22;1883;48.202;16.310;2024-03-06T18:11:52;8.10;69.30
3736;DHT22;1883;48.202;16.310;2024-03-06T18:19:51;8.20;69.30
3736;DHT22;1883;48.202;16.310;2024-03-06T18:22:21;8.10;69.20
3736;DHT22;1883;48.202;16.310;2024-03-06T18:24:48;8.10;69.10
3736;DHT22;1883;48.202;16.310;2024-03-06T18:27:17;8.10;69.10
3736;DHT22;1883;48.202;16.310;2024-03-06T18:29:44;8.10;69.10
3736;DHT22;1883;48.202;16.310;2024-03-06T18:32:13;8.10;69.00
3736;DHT22;1883;48.202;16.310;2024-03-06T18:34:40;8.00;69.00
3736;DHT22;1883;48.202;16.310;2024-03-06T18:37:10;8.10;68.90
3736;DHT22;1883;48.202;16.310;2024-03-06T18:39:43;8.00;69.00
3736;DHT22;1883;48.202;16.310;2024-03-06T18:42:24;8.00;69.00
3736;DHT22;1883;48.202;16.310;2024-03-06T18:44:55;7.90;69.10
3736;DHT22;1883;48.202;16.310;2024-03-06T18:47:26;7.80;68.90
3736;DHT22;1883;48.202;16.310;2024-03-06T18:49:55;7.70;69.00
3736;DHT22;1883;48.202;16.310;2024-03-06T18:52:39;7.60;68.90
3736;DHT22;1883;48.202;16.310;2024-03-06T18:55:08;7.60;68.90
3736;DHT22;1883;48.202;16.310;2024-03-06T18:57:37;7.60;69.00
3736;DHT22;1883;48.202;16.310;2024-03-06T19:00:07;7.60;68.90
3736;DHT22;1883;48.202;16.310;2024-03-06T19:02:55;7.60;68.90
3736;DHT22;1883;48.202;16.310;2024-03-06T19:05:24;7.80;68.60
3736;DHT22;1883;48.202;16.310;2024-03-06T19:08:00;8.00;68.50
3736;DHT22;1883;48.202;16.310;2024-03-06T19:10:27;8.00;68.90
3736;DHT22;1883;48.202;16.310;2024-03-06T19:12:56;8.10;68.90
3736;DHT22;1883;48.202;16.310;2024-03-06T19:15:33;8.20;69.00
3736;DHT22;1883;48.202;16.310;2024-03-06T19:18:01;8.10;69.40
3736;DHT22;1883;48.202;16.310;2024-03-06T19:20:31;7.90;69.20
3736;DHT22;1883;48.202;16.310;2024-03-06T19:23:04;8.00;68.70
3736;DHT22;1883;48.202;16.310;2024-03-06T19:25:33;7.90;69.10
3736;DHT22;1883;48.202;16.310;2024-03-06T19:28:01;7.70;68.90
3736;DHT22;1883;48.202;16.310;2024-03-06T19:30:28;7.60;68.80
3736;DHT22;1883;48.202;16.310;2024-03-06T19:32:56;7.50;68.60
3736;DHT22;1883;48.202;16.310;2024-03-06T19:35:23;7.50;68.50
3736;DHT22;1883;48.202;16.310;2024-03-06T19:37:51;7.40;68.40